Sign-in with your pilot id or email, or register

ICAO: EDDP Name / Country: Schkeuditz / Germany
Latitude: 51.4324 Longitude: 12.2416
Total Arrivals:
Strict Standards: Non-static method AirportData::getarrflights() should not be called statically, assuming $this from incompatible context in /var/www/customers/vh-7192/web/home/phpvms/core/templates/airport_info.tpl on line 18
1
Total Departures:
Strict Standards: Non-static method AirportData::getdeptflights() should not be called statically, assuming $this from incompatible context in /var/www/customers/vh-7192/web/home/phpvms/core/templates/airport_info.tpl on line 21
1
Latest Arrival: MTA11P (CHART (LHBP-EDDP) Tibor Berces Latest Departure: MTA11P (CHART (EDDP-LHBP) Tibor Berces
Metar: EDDP 172250Z 27015KT 9999 FEW033 10/05 Q1019 NOSIG
More info

Charts for EDDP


NOTAM


Warning: file_get_contents(http://api.vateud.net/notams/EDDP.json): failed to open stream: Redirection limit reached, aborting in /var/www/customers/vh-7192/web/home/phpvms/core/common/NOTAMSData.class.php on line 18

Warning: Invalid argument supplied for foreach() in /var/www/customers/vh-7192/web/home/phpvms/core/common/NOTAMSData.class.php on line 22

Schkeuditz